Time;durP1;ratioP1;P1;durP2;ratioP2;P2;SDS_P1;SDS_P2;PMS_P1;PMS_P2;Temp;Humidity;BMP_temperature;BMP_pressure;BME280_temperature;BME280_humidity;BME280_pressure;Samples;Min_cycle;Max_cycle;Signal;HPM_P1;HPM_P2
2021/12/24 00:00:07;;;;;;;72.47;36.75;;;;;;;5.33;100.00;100044.16;4877723;29;20056;-73
2021/12/24 00:02:32;;;;;;;72.43;36.97;;;;;;;5.31;100.00;100047.03;4887925;29;20051;-73
2021/12/24 00:04:57;;;;;;;79.10;36.17;;;;;;;5.29;100.00;100033.03;4889721;29;20119;-73
2021/12/24 00:07:23;;;;;;;78.78;38.10;;;;;;;5.33;100.00;100039.63;4903837;28;20043;-73
2021/12/24 00:09:48;;;;;;;72.45;36.08;;;;;;;5.36;100.00;100038.41;4901209;29;21159;-73
2021/12/24 00:12:18;;;;;;;75.75;37.35;;;;;;;5.36;100.00;100036.56;4895638;29;20131;-73
2021/12/24 00:14:49;;;;;;;77.45;36.30;;;;;;;5.36;100.00;100033.91;4905069;28;20038;-73
2021/12/24 00:17:19;;;;;;;72.35;35.35;;;;;;;5.36;100.00;100039.22;4890970;29;20424;-73
2021/12/24 00:21:11;;;;;;;73.75;35.95;;;;;;;5.34;100.00;100025.28;4890693;28;20037;-73
2021/12/24 00:36:12;;;;;;;80.07;35.63;;;;;;;5.42;100.00;100038.44;4894828;29;20020;-73
2021/12/24 00:38:38;;;;;;;73.60;35.92;;;;;;;5.41;100.00;100036.81;4907183;29;20042;-73
2021/12/24 00:41:03;;;;;;;73.40;37.03;;;;;;;5.42;100.00;100040.31;4890033;28;20055;-73
2021/12/24 00:43:28;;;;;;;69.13;35.05;;;;;;;5.52;100.00;100037.25;4907926;29;20049;-74
2021/12/24 00:45:54;;;;;;;67.38;33.13;;;;;;;5.49;100.00;100028.63;4887028;29;20041;-75
2021/12/24 00:48:20;;;;;;;57.08;32.15;;;;;;;5.48;100.00;100016.28;4896361;29;20235;-74
2021/12/24 00:56:21;;;;;;;63.75;31.38;;;;;;;5.57;100.00;100014.25;4907982;29;20046;-74
2021/12/24 00:58:47;;;;;;;66.75;31.35;;;;;;;5.58;100.00;100021.25;4875811;29;20058;-75
2021/12/24 01:01:14;;;;;;;59.28;30.48;;;;;;;5.62;100.00;100019.00;4907987;29;20039;-75
2021/12/24 01:03:40;;;;;;;57.15;29.40;;;;;;;5.62;100.00;100019.00;4906147;28;20024;-75
2021/12/24 01:06:06;;;;;;;61.45;31.98;;;;;;;5.69;100.00;100023.34;4875863;29;20145;-75
2021/12/24 01:08:31;;;;;;;57.45;30.23;;;;;;;5.70;100.00;100010.81;4890565;28;20064;-76
2021/12/24 01:10:59;;;;;;;58.13;28.60;;;;;;;5.76;100.00;100012.69;4872015;29;20060;-75
2021/12/24 01:13:26;;;;;;;57.05;28.30;;;;;;;5.78;100.00;100009.78;4888299;29;20023;-75
2021/12/24 01:18:37;;;;;;;48.55;25.98;;;;;;;5.78;100.00;100007.94;4893229;28;20059;-77
2021/12/24 01:26:20;;;;;;;42.85;25.00;;;;;;;5.90;100.00;100003.66;4892710;29;20045;-77
2021/12/24 01:39:55;;;;;;;43.25;23.40;;;;;;;6.01;100.00;99993.44;4888914;29;20035;-76
2021/12/24 01:45:33;;;;;;;42.63;22.95;;;;;;;6.07;100.00;99993.44;4888293;29;20873;-75
2021/12/24 01:48:04;;;;;;;40.03;21.63;;;;;;;6.11;100.00;99991.19;4872436;29;20059;-77
2021/12/24 01:50:32;;;;;;;37.45;20.75;;;;;;;6.07;100.00;99987.25;4892852;29;20142;-78
2021/12/24 01:52:58;;;;;;;36.88;19.20;;;;;;;6.17;100.00;99995.69;4888961;29;20118;-78
2021/12/24 01:55:24;;;;;;;36.90;20.63;;;;;;;6.21;100.00;99995.09;4889188;29;20039;-78
2021/12/24 01:57:50;;;;;;;34.97;18.95;;;;;;;6.20;100.00;99987.28;4889487;29;20054;-76
2021/12/24 02:00:27;;;;;;;36.17;19.33;;;;;;;6.26;100.00;99991.00;4891936;28;20056;-77
2021/12/24 02:02:53;;;;;;;35.35;19.80;;;;;;;6.30;100.00;99982.34;4887454;29;20031;-77
2021/12/24 02:05:19;;;;;;;31.60;18.80;;;;;;;6.31;100.00;99978.63;4874604;29;20134;-78
2021/12/24 02:07:45;;;;;;;36.60;19.38;;;;;;;6.36;100.00;99984.19;4888945;29;20198;-78
2021/12/24 02:10:13;;;;;;;32.78;18.38;;;;;;;6.37;100.00;99983.16;4905204;29;20165;-78
2021/12/24 02:12:39;;;;;;;33.95;17.95;;;;;;;6.39;100.00;99981.13;4859632;28;20077;-77
2021/12/24 02:15:09;;;;;;;30.98;16.90;;;;;;;6.42;100.00;99986.06;4872529;29;20038;-77
2021/12/24 02:18:14;;;;;;;30.50;17.63;;;;;;;6.44;100.00;99967.94;4877734;29;20063;-78
2021/12/24 02:28:18;;;;;;;28.27;16.25;;;;;;;6.54;100.00;99966.69;4863171;29;23656;-78
2021/12/24 02:28:43;;;;;;;28.42;15.85;;;;;;;6.52;100.00;99958.84;4899097;29;20082;-78
2021/12/24 02:31:11;;;;;;;27.80;15.82;;;;;;;6.50;100.00;99946.75;4895301;28;20090;-77
2021/12/24 02:33:38;;;;;;;28.63;15.77;;;;;;;6.59;100.00;99950.81;4888210;29;20047;-76
2021/12/24 02:36:05;;;;;;;28.58;16.83;;;;;;;6.64;100.00;99945.69;4872718;28;20061;-76
2021/12/24 02:38:30;;;;;;;28.75;16.05;;;;;;;6.63;100.00;99936.00;4888425;29;20424;-77
2021/12/24 02:40:55;;;;;;;26.40;15.80;;;;;;;6.62;100.00;99939.69;4898927;29;20046;-77
2021/12/24 02:43:23;;;;;;;27.45;15.00;;;;;;;6.69;100.00;99933.31;4876514;29;20048;-77
2021/12/24 02:45:52;;;;;;;26.20;14.70;;;;;;;6.70;100.00;99942.16;4904705;29;20039;-77
2021/12/24 02:56:37;;;;;;;30.25;14.95;;;;;;;6.82;100.00;99924.44;4893001;29;20146;-76
2021/12/24 02:59:07;;;;;;;26.65;15.30;;;;;;;6.85;100.00;99926.69;4871292;29;20167;-75
2021/12/24 03:01:36;;;;;;;28.98;15.48;;;;;;;6.84;100.00;99919.66;4896050;28;20047;-74
2021/12/24 03:04:02;;;;;;;27.05;14.10;;;;;;;6.88;100.00;99920.06;4905092;28;20758;-75
2021/12/24 03:06:31;;;;;;;24.23;14.07;;;;;;;6.93;100.00;99923.75;4888031;29;20062;-74
2021/12/24 03:08:56;;;;;;;29.35;14.93;;;;;;;6.96;100.00;99921.72;4904402;29;20054;-74
2021/12/24 03:11:23;;;;;;;27.17;14.55;;;;;;;7.01;100.00;99925.38;4889781;29;20047;-74
2021/12/24 03:13:49;;;;;;;25.05;14.77;;;;;;;7.03;100.00;99923.31;4888639;29;20038;-74
2021/12/24 03:16:15;;;;;;;25.88;14.40;;;;;;;7.06;100.00;99916.72;4860106;29;20647;-74
2021/12/24 03:18:42;;;;;;;29.35;14.43;;;;;;;7.09;100.00;99916.28;4876103;29;20079;-74
2021/12/24 03:21:14;;;;;;;29.45;15.98;;;;;;;7.13;100.00;99917.53;4903683;28;20030;-75
2021/12/24 03:26:30;;;;;;;30.42;15.63;;;;;;;7.17;100.00;99910.69;4854229;29;20616;-75
2021/12/24 03:28:56;;;;;;;28.95;15.82;;;;;;;7.22;100.00;99910.88;4900811;28;20161;-74
2021/12/24 03:31:22;;;;;;;30.30;16.00;;;;;;;7.22;100.00;99910.06;4878186;29;20052;-75
2021/12/24 03:33:48;;;;;;;29.45;15.57;;;;;;;7.23;100.00;99903.66;4902733;29;20057;-75
2021/12/24 03:36:14;;;;;;;31.42;17.05;;;;;;;7.23;100.00;99904.50;4887793;28;20131;-74
2021/12/24 03:38:40;;;;;;;35.20;17.77;;;;;;;7.26;100.00;99901.38;4900389;28;20039;-75
2021/12/24 03:41:05;;;;;;;33.63;18.52;;;;;;;7.26;100.00;99896.00;4877094;28;20051;-74
2021/12/24 03:43:31;;;;;;;31.95;16.90;;;;;;;7.29;100.00;99903.63;4894645;29;20055;-74
2021/12/24 03:46:03;;;;;;;34.60;17.40;;;;;;;7.31;100.00;99904.25;4887748;29;20039;-74
2021/12/24 03:51:22;;;;;;;42.35;20.02;;;;;;;7.34;100.00;99906.50;4890339;29;20766;-74
2021/12/24 03:56:34;;;;;;;48.97;19.80;;;;;;;7.47;100.00;99902.06;4895021;29;20687;-74
2021/12/24 03:59:00;;;;;;;48.83;21.40;;;;;;;7.51;100.00;99900.59;4889513;29;20100;-75
2021/12/24 04:01:25;;;;;;;53.38;21.00;;;;;;;7.50;100.00;99896.28;4885968;29;20055;-74
2021/12/24 04:03:51;;;;;;;51.13;21.13;;;;;;;7.52;100.00;99891.56;4891139;29;20027;-74
2021/12/24 04:06:17;;;;;;;56.55;22.52;;;;;;;7.54;100.00;99897.50;4892886;29;20047;-74
2021/12/24 04:08:42;;;;;;;61.40;22.67;;;;;;;7.57;100.00;99897.06;4890174;29;22213;-74
2021/12/24 04:11:08;;;;;;;64.05;25.05;;;;;;;7.60;100.00;99902.00;4900811;28;20126;-74
2021/12/24 04:13:34;;;;;;;67.90;26.15;;;;;;;7.59;100.00;99889.66;4881998;28;20082;-74
2021/12/24 04:16:00;;;;;;;67.32;25.35;;;;;;;7.65;100.00;99894.13;4890368;29;20050;-74
2021/12/24 04:26:24;;;;;;;82.00;27.67;;;;;;;7.69;100.00;99899.88;4908145;29;20043;-75
2021/12/24 04:28:49;;;;;;;78.13;28.95;;;;;;;7.74;100.00;99903.56;4905837;28;20051;-74
2021/12/24 04:31:16;;;;;;;88.72;28.55;;;;;;;7.77;100.00;99908.47;4892309;29;20059;-74
2021/12/24 04:33:46;;;;;;;89.75;28.83;;;;;;;7.81;100.00;99909.69;4891579;29;20038;-74
2021/12/24 04:36:46;;;;;;;89.22;26.63;;;;;;;7.81;100.00;99903.50;4874770;28;20130;-75
2021/12/24 05:01:10;;;;;;;61.63;23.52;;;;;;;7.99;100.00;99897.38;4907514;29;20702;-75
2021/12/24 05:03:41;;;;;;;70.25;31.52;;;;;;;8.06;100.00;99895.47;4905548;29;20043;-76
2021/12/24 05:08:49;;;;;;;70.97;34.08;;;;;;;8.06;100.00;99895.47;4904979;28;20039;-76
2021/12/24 05:11:17;;;;;;;79.78;35.00;;;;;;;8.07;100.00;99899.78;4886181;29;20031;-77
2021/12/24 05:13:42;;;;;;;73.28;34.17;;;;;;;8.10;100.00;99896.66;4878443;29;20591;-76
2021/12/24 05:16:21;;;;;;;76.95;34.60;;;;;;;8.10;100.00;99896.66;4888170;29;20035;-77
2021/12/24 05:24:07;;;;;;;81.30;35.63;;;;;;;8.10;100.00;99904.72;4889101;29;20107;-76
2021/12/24 05:26:34;;;;;;;78.85;36.22;;;;;;;8.13;100.00;99893.53;4904411;29;20089;-77
2021/12/24 05:29:00;;;;;;;79.47;34.70;;;;;;;8.13;100.00;99885.50;4879483;29;20082;-77
2021/12/24 05:31:26;;;;;;;68.75;31.85;;;;;;;8.08;100.00;99877.31;4879430;29;20047;-76
2021/12/24 05:33:51;;;;;;;71.32;34.58;;;;;;;8.13;100.00;99877.44;4889392;29;20066;-76
2021/12/24 05:36:17;;;;;;;65.10;33.58;;;;;;;8.11;100.00;99876.88;4890249;29;20145;-77
2021/12/24 05:38:43;;;;;;;79.00;34.17;;;;;;;8.07;100.00;99872.97;4884279;29;20035;-77
2021/12/24 05:41:10;;;;;;;75.30;35.00;;;;;;;8.08;100.00;99880.00;4888678;29;20039;-76
2021/12/24 05:43:36;;;;;;;74.65;37.22;;;;;;;8.10;100.00;99870.66;4894527;28;20400;-76
2021/12/24 05:46:01;;;;;;;75.75;38.67;;;;;;;8.13;100.00;99880.13;4907142;29;20046;-76
2021/12/24 05:48:26;;;;;;;78.70;39.67;;;;;;;8.09;100.00;99873.56;4890047;28;20067;-77
2021/12/24 05:50:52;;;;;;;74.57;37.58;;;;;;;8.15;100.00;99888.78;4905210;28;20046;-76
2021/12/24 05:53:18;;;;;;;72.13;38.20;;;;;;;8.17;100.00;99870.59;4900172;28;20118;-77
2021/12/24 05:55:43;;;;;;;79.85;39.85;;;;;;;8.23;100.00;99875.09;4881741;29;20831;-76
2021/12/24 05:58:09;;;;;;;88.65;39.22;;;;;;;8.18;100.00;99876.78;4888130;29;20062;-77
2021/12/24 06:00:36;;;;;;;88.57;39.55;;;;;;;8.20;100.00;99874.72;4875343;29;20161;-76
2021/12/24 06:03:02;;;;;;;85.50;38.53;;;;;;;8.16;100.00;99879.69;4888632;29;20114;-76
2021/12/24 06:05:27;;;;;;;74.88;38.00;;;;;;;8.18;100.00;99877.63;4900324;29;20042;-75
2021/12/24 06:07:53;;;;;;;81.65;36.72;;;;;;;8.21;100.00;99887.06;4879021;29;20043;-76
2021/12/24 06:10:18;;;;;;;70.40;38.00;;;;;;;8.17;100.00;99892.06;4888940;29;20035;-76
2021/12/24 06:12:44;;;;;;;71.25;36.03;;;;;;;8.18;100.00;99883.00;4890458;28;20303;-76
2021/12/24 06:15:09;;;;;;;58.95;33.83;;;;;;;8.26;100.00;99895.31;4887956;29;20039;-76
2021/12/24 06:17:37;;;;;;;77.13;36.63;;;;;;;8.25;100.00;99874.84;4885235;29;20058;-76
2021/12/24 06:20:06;;;;;;;69.45;33.67;;;;;;;8.27;100.00;99889.69;4878601;29;20073;-76
2021/12/24 06:22:32;;;;;;;86.78;34.55;;;;;;;8.23;100.00;99901.91;4888414;29;20028;-76
2021/12/24 06:24:57;;;;;;;71.78;33.10;;;;;;;8.25;100.00;99894.47;4871404;29;20062;-76
2021/12/24 06:27:23;;;;;;;68.13;32.33;;;;;;;8.23;100.00;99904.59;4894422;29;20043;-76
2021/12/24 06:29:48;;;;;;;68.32;30.75;;;;;;;8.21;100.00;99904.00;4883191;29;20077;-76
2021/12/24 06:32:14;;;;;;;76.72;30.40;;;;;;;8.14;100.00;99900.53;4897336;29;20116;-77
2021/12/24 06:34:39;;;;;;;69.50;28.40;;;;;;;8.15;100.00;99915.63;4887405;29;21767;-77
2021/12/24 06:37:05;;;;;;;63.33;27.50;;;;;;;8.11;100.00;99903.69;4873814;29;20080;-78
2021/12/24 06:39:30;;;;;;;67.15;27.75;;;;;;;8.12;100.00;99902.66;4905761;28;20035;-78
2021/12/24 06:41:56;;;;;;;70.78;26.88;;;;;;;8.10;100.00;99913.56;4900995;29;20043;-77
2021/12/24 06:44:22;;;;;;;61.00;25.98;;;;;;;8.10;100.00;99918.94;4896693;29;20081;-77
2021/12/24 06:46:47;;;;;;;69.38;25.17;;;;;;;8.08;100.00;99912.19;4889926;29;20050;-78
2021/12/24 06:49:13;;;;;;;59.25;25.17;;;;;;;8.03;100.00;99918.19;4874554;29;20051;-77
2021/12/24 06:51:39;;;;;;;49.72;24.10;;;;;;;8.03;100.00;99912.00;4906060;29;20039;-77
2021/12/24 06:54:05;;;;;;;55.28;23.48;;;;;;;8.05;100.00;99920.66;4896845;29;20066;-77
2021/12/24 06:56:30;;;;;;;57.15;21.95;;;;;;;8.04;100.00;99924.38;4893806;29;20047;-77
2021/12/24 06:58:56;;;;;;;49.60;22.63;;;;;;;8.06;100.00;99922.28;4888044;29;20062;-77
2021/12/24 07:01:21;;;;;;;59.85;21.20;;;;;;;7.98;100.00;99915.34;4873215;28;20067;-77
2021/12/24 07:03:47;;;;;;;50.05;20.02;;;;;;;8.01;100.00;99922.13;4905992;29;20028;-77
2021/12/24 07:06:12;;;;;;;39.70;18.60;;;;;;;7.99;100.00;99910.78;4881378;29;20058;-76
2021/12/24 07:08:38;;;;;;;51.60;20.02;;;;;;;8.01;100.00;99919.47;4895978;28;20047;-77
2021/12/24 07:11:04;;;;;;;48.58;19.92;;;;;;;8.02;100.00;99923.78;4887141;29;20110;-77
2021/12/24 07:13:30;;;;;;;48.08;19.20;;;;;;;8.01;100.00;99922.94;4871550;29;20059;-77
2021/12/24 07:15:55;;;;;;;56.97;20.98;;;;;;;7.99;100.00;99926.88;4905455;28;20027;-76
2021/12/24 07:18:21;;;;;;;43.50;19.17;;;;;;;7.98;100.00;99930.63;4885446;29;20197;-77
2021/12/24 07:20:47;;;;;;;45.80;19.45;;;;;;;8.00;100.00;99928.53;4879143;29;20122;-77
2021/12/24 07:23:12;;;;;;;51.35;20.05;;;;;;;8.00;100.00;99928.53;4903318;29;20096;-76
2021/12/24 07:25:38;;;;;;;59.83;20.92;;;;;;;8.03;100.00;99934.25;4890458;28;20137;-77
2021/12/24 07:28:04;;;;;;;52.53;21.30;;;;;;;7.99;100.00;99927.69;4907220;29;20041;-76
2021/12/24 07:30:30;;;;;;;45.88;20.80;;;;;;;7.99;100.00;99933.06;4883740;29;20397;-77
2021/12/24 07:32:56;;;;;;;47.72;20.35;;;;;;;8.02;100.00;99937.19;4897946;29;20138;-77
2021/12/24 07:35:21;;;;;;;43.53;20.33;;;;;;;7.97;100.00;99937.00;4891126;29;20031;-77
2021/12/24 07:37:47;;;;;;;45.63;18.48;;;;;;;7.96;100.00;99935.38;4875187;29;20052;-77
2021/12/24 07:40:16;;;;;;;44.95;18.92;;;;;;;7.97;100.00;99945.03;4906288;28;22737;-76
2021/12/24 07:42:43;;;;;;;39.30;19.00;;;;;;;7.94;100.00;99946.31;4881608;29;20043;-79
2021/12/24 07:45:11;;;;;;;43.85;19.35;;;;;;;7.94;100.00;99958.91;4890314;29;20147;-78
2021/12/24 07:47:40;;;;;;;45.22;18.50;;;;;;;7.91;100.00;99946.75;4906836;29;20155;-78
2021/12/24 07:52:54;;;;;;;37.47;16.80;;;;;;;7.86;100.00;99951.94;4907591;29;20031;-78
2021/12/24 07:55:19;;;;;;;34.47;14.13;;;;;;;7.87;100.00;99957.09;4869587;29;20094;-77
2021/12/24 07:57:46;;;;;;;31.40;14.52;;;;;;;7.91;100.00;99951.28;4905464;28;20555;-78
2021/12/24 08:00:13;;;;;;;34.42;14.40;;;;;;;7.86;100.00;99950.09;4904079;29;20065;-78
2021/12/24 08:02:39;;;;;;;22.95;12.85;;;;;;;7.89;100.00;99948.81;4879725;29;20057;-78
2021/12/24 08:05:05;;;;;;;23.17;12.57;;;;;;;7.86;100.00;99955.44;4890591;28;20050;-77
2021/12/24 08:07:30;;;;;;;27.25;13.52;;;;;;;7.83;100.00;99949.72;4891031;29;20407;-78
2021/12/24 08:09:56;;;;;;;30.45;13.73;;;;;;;7.84;100.00;99952.16;4891723;29;20070;-77
2021/12/24 08:12:21;;;;;;;24.25;13.13;;;;;;;7.84;100.00;99945.97;4869339;29;20031;-77
2021/12/24 08:14:47;;;;;;;30.38;13.90;;;;;;;7.89;100.00;99960.34;4879343;29;20063;-77
2021/12/24 08:17:13;;;;;;;30.90;14.32;;;;;;;7.86;100.00;99958.13;4889406;29;20035;-77
2021/12/24 08:19:39;;;;;;;29.77;13.82;;;;;;;7.88;100.00;99964.09;4892419;29;21068;-77
2021/12/24 08:22:05;;;;;;;32.88;14.00;;;;;;;7.83;100.00;99961.25;4877527;29;20114;-77
2021/12/24 08:24:31;;;;;;;38.55;13.05;;;;;;;7.83;100.00;99963.94;4886001;28;20188;-77
2021/12/24 08:26:57;;;;;;;37.45;14.82;;;;;;;7.78;100.00;99969.09;4895686;29;20043;-79
2021/12/24 08:29:23;;;;;;;32.30;14.20;;;;;;;7.79;100.00;99968.09;4902127;28;20117;-77
2021/12/24 08:31:52;;;;;;;29.92;13.52;;;;;;;7.86;100.00;99976.06;4892546;29;20051;-78
2021/12/24 08:34:19;;;;;;;31.00;14.70;;;;;;;7.83;100.00;99969.28;4892604;29;20087;-77
2021/12/24 08:36:49;;;;;;;28.52;14.43;;;;;;;7.84;100.00;99968.25;4884298;29;20093;-78
2021/12/24 08:39:16;;;;;;;32.90;13.65;;;;;;;7.81;100.00;99973.22;4899139;29;20377;-78
2021/12/24 08:41:43;;;;;;;38.65;14.57;;;;;;;7.78;100.00;99979.81;4907525;29;20172;-77
2021/12/24 08:44:08;;;;;;;27.90;14.68;;;;;;;7.82;100.00;99975.66;4892603;28;20047;-79
2021/12/24 08:46:34;;;;;;;29.90;13.15;;;;;;;7.85;100.00;99975.25;4906213;29;20139;-78
2021/12/24 08:48:59;;;;;;;30.77;12.80;;;;;;;7.83;100.00;99977.34;4902288;28;20079;-78
2021/12/24 08:51:25;;;;;;;31.15;14.45;;;;;;;7.80;100.00;99977.75;4880075;29;20055;-78
2021/12/24 08:53:51;;;;;;;41.00;14.95;;;;;;;7.86;100.00;99982.28;4906144;29;20031;-78
2021/12/24 08:56:16;;;;;;;36.85;13.25;;;;;;;7.88;100.00;99985.53;4882213;28;20487;-78
2021/12/24 08:58:41;;;;;;;37.33;14.95;;;;;;;7.88;100.00;99985.53;4889018;29;20080;-77
2021/12/24 09:01:07;;;;;;;37.55;14.98;;;;;;;7.89;100.00;99976.44;4885293;29;20129;-77
2021/12/24 09:03:33;;;;;;;32.92;12.90;;;;;;;7.95;100.00;99968.59;4900050;29;20695;-77
2021/12/24 09:05:58;;;;;;;35.47;14.05;;;;;;;7.98;100.00;99976.22;4891492;28;20770;-77
2021/12/24 09:08:24;;;;;;;30.08;13.32;;;;;;;7.97;100.00;99979.91;4897124;28;21133;-77
2021/12/24 09:10:49;;;;;;;36.05;14.27;;;;;;;7.98;100.00;99973.53;4908675;29;20039;-77
2021/12/24 09:13:15;;;;;;;31.83;12.43;;;;;;;7.99;100.00;99975.97;4902471;28;20078;-77
2021/12/24 09:15:41;;;;;;;33.53;14.00;;;;;;;7.99;100.00;99975.97;4882410;29;20054;-77
2021/12/24 09:18:07;;;;;;;33.70;12.50;;;;;;;7.99;100.00;99985.88;4907084;28;20039;-77
2021/12/24 09:20:38;;;;;;;39.88;13.10;;;;;;;7.92;100.00;99985.09;4876871;29;20150;-77
2021/12/24 09:23:05;;;;;;;35.55;12.02;;;;;;;7.89;100.00;99987.16;4893312;29;20528;-77
2021/12/24 09:25:31;;;;;;;30.58;12.88;;;;;;;7.84;100.00;99978.97;4873913;29;20043;-76
2021/12/24 09:27:58;;;;;;;28.55;13.07;;;;;;;7.84;100.00;99978.97;4898062;29;21600;-77
2021/12/24 09:30:25;;;;;;;42.70;15.05;;;;;;;7.83;100.00;99981.88;4907831;29;20439;-78
2021/12/24 09:32:50;;;;;;;37.53;12.77;;;;;;;7.82;100.00;99977.53;4893613;29;20098;-79
2021/12/24 09:35:16;;;;;;;43.13;13.80;;;;;;;7.78;100.00;99985.19;4890511;29;20059;-79
2021/12/24 09:37:42;;;;;;;31.08;12.65;;;;;;;7.86;100.00;100008.22;4873600;29;20086;-79
2021/12/24 09:40:10;;;;;;;17.90;8.82;;;;;;;7.52;100.00;99998.75;4908694;28;20047;-79
2021/12/24 09:42:36;;;;;;;10.75;6.50;;;;;;;7.26;100.00;100021.91;4889909;29;20031;-81
2021/12/24 09:45:06;;;;;;;8.18;6.20;;;;;;;6.96;100.00;100037.66;4861196;29;20062;-81
2021/12/24 09:47:32;;;;;;;8.85;5.63;;;;;;;6.65;100.00;100017.72;4895815;29;20651;-80
2021/12/24 09:49:57;;;;;;;7.63;4.93;;;;;;;6.48;100.00;100042.44;4880814;29;20078;-81
2021/12/24 09:52:23;;;;;;;8.50;5.32;;;;;;;6.29;100.00;100050.25;4893458;29;20047;-82
2021/12/24 09:54:50;;;;;;;8.60;5.93;;;;;;;6.15;100.00;100053.94;4873479;29;20039;-80
2021/12/24 09:57:16;;;;;;;10.00;6.97;;;;;;;6.15;100.00;100059.28;4887128;29;20139;-80
2021/12/24 09:59:42;;;;;;;9.35;6.63;;;;;;;6.10;100.00;100057.19;4896937;29;20235;-79
2021/12/24 10:02:14;;;;;;;9.93;6.90;;;;;;;6.03;100.00;100055.53;4887079;29;20047;-81
2021/12/24 10:04:41;;;;;;;9.07;7.03;;;;;;;6.06;100.00;100060.47;4892669;29;20043;-80
2021/12/24 10:07:08;;;;;;;10.68;7.57;;;;;;;5.97;100.00;100063.34;4899985;29;20123;-80
2021/12/24 10:09:36;;;;;;;11.55;8.15;;;;;;;5.93;100.00;100066.59;4869353;29;20055;-82
2021/12/24 10:12:03;;;;;;;13.63;8.65;;;;;;;5.97;100.00;100074.03;4891167;29;20524;-80
2021/12/24 10:14:32;;;;;;;13.95;8.27;;;;;;;5.89;100.00;100076.03;4875598;29;20480;-81
2021/12/24 10:16:58;;;;;;;10.70;7.00;;;;;;;5.84;100.00;100068.63;4891787;29;20039;-81
2021/12/24 10:19:23;;;;;;;11.77;8.10;;;;;;;5.81;100.00;100074.38;4889161;28;20649;-81
2021/12/24 10:21:57;;;;;;;11.77;8.13;;;;;;;5.85;100.00;100085.47;4888848;29;20058;-81
2021/12/24 10:24:23;;;;;;;;;;;;;;;5.83;100.00;100080.34;4918362;29;20028;-81
2021/12/24 10:26:51;;;;;;;12.35;7.90;;;;;;;5.83;100.00;100091.03;4878863;29;19942;-81
2021/12/24 10:29:29;;;;;;;11.68;7.78;;;;;;;5.84;100.00;100092.66;4909255;29;20034;-79
2021/12/24 10:31:57;;;;;;;12.15;7.38;;;;;;;5.78;100.00;100106.00;4890849;29;20048;-80
2021/12/24 10:34:27;;;;;;;13.73;8.15;;;;;;;5.78;100.00;100109.50;4907431;28;20042;-79
2021/12/24 10:37:22;;;;;;;12.55;7.85;;;;;;;5.79;100.00;100108.50;4888414;29;20448;-79
2021/12/24 10:40:00;;;;;;;7.90;5.80;;;;;;;5.75;100.00;100108.03;4885808;28;20058;-80
2021/12/24 10:42:37;;;;;;;10.35;6.75;;;;;;;5.69;100.00;100103.53;4886693;29;20117;-81
2021/12/24 10:45:16;;;;;;;7.90;4.80;;;;;;;5.72;100.00;100107.63;4891222;29;20166;-80
2021/12/24 10:47:42;;;;;;;8.45;5.07;;;;;;;5.65;100.00;100122.78;4891591;29;22180;-81
2021/12/24 10:50:49;;;;;;;8.40;5.35;;;;;;;5.62;100.00;100123.22;4891516;29;20043;-80
2021/12/24 10:53:16;;;;;;;7.50;4.78;;;;;;;5.54;100.00;100110.81;4903825;28;20430;-80
2021/12/24 10:55:50;;;;;;;7.72;4.85;;;;;;;5.55;100.00;100123.19;4884136;28;20086;-79
2021/12/24 10:58:18;;;;;;;8.43;5.65;;;;;;;5.58;100.00;100129.94;4906049;29;21135;-79
2021/12/24 11:01:00;;;;;;;7.45;5.20;;;;;;;5.58;100.00;100133.47;4899376;29;20035;-79
2021/12/24 11:03:31;;;;;;;7.10;4.80;;;;;;;5.59;100.00;100124.44;4874751;28;20047;-79
2021/12/24 11:06:07;;;;;;;7.70;4.47;;;;;;;5.56;100.00;100132.00;4907741;29;20090;-79
2021/12/24 11:08:33;;;;;;;7.18;4.85;;;;;;;5.50;100.00;100137.09;4891198;28;20224;-80
2021/12/24 11:11:01;;;;;;;8.63;5.35;;;;;;;5.55;100.00;100138.38;4905536;29;20043;-80
2021/12/24 11:13:32;;;;;;;9.93;6.38;;;;;;;5.57;100.00;100136.31;4901016;28;20031;-79
2021/12/24 11:16:02;;;;;;;9.43;6.70;;;;;;;5.61;100.00;100142.91;4905893;29;20048;-81
2021/12/24 11:18:34;;;;;;;10.02;7.03;;;;;;;5.57;100.00;100147.84;4942736;29;20031;-81
2021/12/24 11:21:01;;;;;;;10.60;7.47;;;;;;;5.54;100.00;100144.72;4910380;29;20200;-80
2021/12/24 11:23:32;;;;;;;13.85;8.00;;;;;;;5.55;100.00;100146.41;4931417;29;20108;-80
2021/12/24 11:25:59;;;;;;;11.95;7.70;;;;;;;5.52;100.00;100152.13;4940797;28;20043;-80
2021/12/24 11:28:26;;;;;;;10.32;6.95;;;;;;;5.58;100.00;100148.66;4942566;29;20760;-80
2021/12/24 11:30:55;;;;;;;11.60;7.18;;;;;;;5.54;100.00;100152.75;4948171;29;20023;-80
2021/12/24 11:33:27;;;;;;;12.07;7.40;;;;;;;5.41;100.00;100148.16;4933847;29;20048;-80
2021/12/24 11:35:53;;;;;;;8.88;6.30;;;;;;;5.47;100.00;100158.03;4934366;29;20074;-80
2021/12/24 11:38:30;;;;;;;9.82;7.15;;;;;;;5.48;100.00;100163.22;4931895;28;20106;-80
2021/12/24 11:40:57;;;;;;;10.77;7.30;;;;;;;5.56;100.00;100164.91;4950302;28;20146;-81
2021/12/24 11:43:27;;;;;;;10.50;6.75;;;;;;;5.50;100.00;100169.16;4949238;28;20035;-80
2021/12/24 11:45:52;;;;;;;10.70;6.90;;;;;;;5.53;100.00;100175.16;4949729;28;20034;-81
2021/12/24 11:48:18;;;;;;;10.45;6.97;;;;;;;5.41;100.00;100170.34;4937022;29;20040;-81
2021/12/24 11:50:44;;;;;;;12.57;8.45;;;;;;;5.50;100.00;100177.19;4925802;29;20051;-81
2021/12/24 11:53:13;;;;;;;9.95;7.40;;;;;;;5.40;100.00;100168.69;4909071;29;20031;-77
2021/12/24 11:55:48;;;;;;;11.07;7.45;;;;;;;5.38;100.00;100173.41;4897916;29;20082;-76
2021/12/24 11:58:24;;;;;;;12.00;8.25;;;;;;;5.32;100.00;100168.03;4886405;29;20623;-77
2021/12/24 12:00:53;;;;;;;9.88;7.30;;;;;;;5.39;100.00;100176.91;4888392;29;20070;-75
2021/12/24 12:03:37;;;;;;;11.25;7.20;;;;;;;5.35;100.00;100170.31;4871788;29;20083;-75
2021/12/24 12:06:29;;;;;;;11.13;6.90;;;;;;;5.32;100.00;100176.84;4886771;29;20027;-75
2021/12/24 12:08:57;;;;;;;12.57;7.30;;;;;;;5.24;100.00;100171.69;4873363;29;20117;-75
2021/12/24 12:11:30;;;;;;;10.93;6.93;;;;;;;5.24;100.00;100169.00;4904797;29;20027;-77
2021/12/24 12:14:13;;;;;;;;;;;;;;;5.29;100.00;100173.75;4903309;29;20082;-75
2021/12/24 12:16:39;;;;;;;10.05;5.47;;;;;;;5.22;100.00;100192.41;4911859;29;19994;-75
2021/12/24 12:22:13;;;;;;;11.48;7.00;;;;;;;5.10;100.00;100183.28;4892603;29;20408;-75
2021/12/24 12:27:46;;;;;;;11.75;7.28;;;;;;;5.16;100.00;100177.13;4876587;29;20055;-76
2021/12/24 12:30:39;;;;;;;11.13;6.95;;;;;;;5.30;100.00;100183.41;4904943;29;20043;-76
2021/12/24 12:33:12;;;;;;;12.57;6.40;;;;;;;5.36;100.00;100183.47;4893409;29;20072;-76
2021/12/24 12:35:44;;;;;;;11.27;6.30;;;;;;;5.44;100.00;100196.69;4891771;29;20094;-75
2021/12/24 12:38:29;;;;;;;9.35;6.07;;;;;;;5.47;100.00;100190.91;4901770;29;20059;-76
2021/12/24 12:41:31;;;;;;;8.85;6.45;;;;;;;5.52;100.00;100186.88;4873998;29;20826;-75
2021/12/24 12:43:58;;;;;;;8.48;5.68;;;;;;;5.48;100.00;100187.25;4901385;29;20039;-75
2021/12/24 12:46:26;;;;;;;11.95;7.05;;;;;;;5.50;100.00;100190.53;4879867;29;20051;-75
2021/12/24 12:48:53;;;;;;;11.25;7.18;;;;;;;5.59;100.00;100190.41;4890153;29;20063;-73
2021/12/24 12:51:21;;;;;;;14.05;7.20;;;;;;;5.64;100.00;100188.78;4876194;29;20146;-75
2021/12/24 12:53:48;;;;;;;11.90;8.00;;;;;;;5.75;100.00;100192.75;4890991;29;20095;-75
2021/12/24 12:56:21;;;;;;;11.20;7.68;;;;;;;5.88;100.00;100192.00;4869718;29;22551;-74
2021/12/24 12:58:49;;;;;;;9.63;7.13;;;;;;;5.95;100.00;100193.69;4896364;29;20056;-74
2021/12/24 13:01:19;;;;;;;12.45;7.82;;;;;;;5.96;100.00;100195.34;4892412;29;20043;-75
2021/12/24 13:03:57;;;;;;;12.38;7.93;;;;;;;6.03;100.00;100199.91;4893976;28;20059;-74
2021/12/24 13:06:46;;;;;;;9.55;6.32;;;;;;;6.05;100.00;100195.19;4906379;28;20109;-74
2021/12/24 13:09:24;;;;;;;9.23;6.70;;;;;;;6.06;100.00;100194.16;4892076;29;20059;-74
2021/12/24 13:11:52;;;;;;;12.90;7.45;;;;;;;6.07;100.00;100206.50;4905211;29;20019;-74